sensor_id;sensor_type;location;lat;lon;timestamp;P1;durP1;ratioP1;P2;durP2;ratioP2
7203;SDS011;3643;52.460;13.322;2024-01-27T00:01:38;15.20;;;3.00;;
7203;SDS011;3643;52.460;13.322;2024-01-27T00:04:06;19.43;;;3.10;;
7203;SDS011;3643;52.460;13.322;2024-01-27T00:06:35;17.17;;;2.93;;
7203;SDS011;3643;52.460;13.322;2024-01-27T00:09:04;17.13;;;3.70;;
7203;SDS011;3643;52.460;13.322;2024-01-27T00:11:32;16.10;;;3.33;;
7203;SDS011;3643;52.460;13.322;2024-01-27T00:14:01;12.93;;;3.17;;
7203;SDS011;3643;52.460;13.322;2024-01-27T00:16:29;16.33;;;3.63;;
7203;SDS011;3643;52.460;13.322;2024-01-27T00:18:57;17.10;;;3.37;;
7203;SDS011;3643;52.460;13.322;2024-01-27T00:21:26;10.77;;;2.87;;
7203;SDS011;3643;52.460;13.322;2024-01-27T00:23:55;15.13;;;3.53;;
7203;SDS011;3643;52.460;13.322;2024-01-27T00:26:27;18.50;;;3.30;;
7203;SDS011;3643;52.460;13.322;2024-01-27T00:28:55;16.17;;;3.50;;
7203;SDS011;3643;52.460;13.322;2024-01-27T00:31:23;20.10;;;3.57;;
7203;SDS011;3643;52.460;13.322;2024-01-27T00:33:51;15.13;;;3.63;;
7203;SDS011;3643;52.460;13.322;2024-01-27T00:36:20;13.13;;;2.83;;
7203;SDS011;3643;52.460;13.322;2024-01-27T00:38:48;15.67;;;3.10;;
7203;SDS011;3643;52.460;13.322;2024-01-27T00:41:17;14.67;;;3.00;;
7203;SDS011;3643;52.460;13.322;2024-01-27T00:43:46;13.00;;;3.30;;
7203;SDS011;3643;52.460;13.322;2024-01-27T00:46:14;13.60;;;2.77;;
7203;SDS011;3643;52.460;13.322;2024-01-27T00:48:42;14.73;;;3.40;;
7203;SDS011;3643;52.460;13.322;2024-01-27T00:51:10;14.10;;;2.87;;
7203;SDS011;3643;52.460;13.322;2024-01-27T00:53:39;12.30;;;2.80;;
7203;SDS011;3643;52.460;13.322;2024-01-27T00:56:07;16.83;;;3.50;;
7203;SDS011;3643;52.460;13.322;2024-01-27T00:58:37;12.80;;;3.13;;
7203;SDS011;3643;52.460;13.322;2024-01-27T01:01:05;15.93;;;5.33;;
7203;SDS011;3643;52.460;13.322;2024-01-27T01:03:33;13.13;;;2.93;;
7203;SDS011;3643;52.460;13.322;2024-01-27T01:06:01;14.13;;;3.23;;
7203;SDS011;3643;52.460;13.322;2024-01-27T01:08:29;11.97;;;2.97;;
7203;SDS011;3643;52.460;13.322;2024-01-27T01:10:59;18.27;;;3.20;;
7203;SDS011;3643;52.460;13.322;2024-01-27T01:13:27;19.63;;;3.47;;
7203;SDS011;3643;52.460;13.322;2024-01-27T01:15:56;18.27;;;3.67;;
7203;SDS011;3643;52.460;13.322;2024-01-27T01:18:24;11.70;;;2.73;;
7203;SDS011;3643;52.460;13.322;2024-01-27T01:20:52;16.73;;;3.03;;
7203;SDS011;3643;52.460;13.322;2024-01-27T01:23:20;10.73;;;3.10;;
7203;SDS011;3643;52.460;13.322;2024-01-27T01:25:48;12.03;;;3.00;;
7203;SDS011;3643;52.460;13.322;2024-01-27T01:28:16;10.60;;;3.70;;
7203;SDS011;3643;52.460;13.322;2024-01-27T01:30:44;14.23;;;2.90;;
7203;SDS011;3643;52.460;13.322;2024-01-27T01:33:13;16.73;;;3.50;;
7203;SDS011;3643;52.460;13.322;2024-01-27T01:35:42;16.00;;;3.50;;
7203;SDS011;3643;52.460;13.322;2024-01-27T01:38:10;19.83;;;3.27;;
7203;SDS011;3643;52.460;13.322;2024-01-27T01:40:38;11.67;;;3.20;;
7203;SDS011;3643;52.460;13.322;2024-01-27T01:43:09;10.50;;;2.70;;
7203;SDS011;3643;52.460;13.322;2024-01-27T01:45:38;12.93;;;3.10;;
7203;SDS011;3643;52.460;13.322;2024-01-27T01:48:06;13.53;;;2.90;;
7203;SDS011;3643;52.460;13.322;2024-01-27T01:50:36;19.97;;;3.10;;
7203;SDS011;3643;52.460;13.322;2024-01-27T01:53:04;19.37;;;3.43;;
7203;SDS011;3643;52.460;13.322;2024-01-27T01:55:34;20.27;;;3.20;;
7203;SDS011;3643;52.460;13.322;2024-01-27T01:58:02;22.13;;;3.30;;
7203;SDS011;3643;52.460;13.322;2024-01-27T02:00:30;14.13;;;3.20;;
7203;SDS011;3643;52.460;13.322;2024-01-27T02:02:59;20.20;;;3.63;;
7203;SDS011;3643;52.460;13.322;2024-01-27T02:05:27;13.23;;;2.70;;
7203;SDS011;3643;52.460;13.322;2024-01-27T02:07:57;13.67;;;2.80;;
7203;SDS011;3643;52.460;13.322;2024-01-27T02:10:26;19.43;;;3.23;;
7203;SDS011;3643;52.460;13.322;2024-01-27T02:12:56;14.67;;;3.13;;
7203;SDS011;3643;52.460;13.322;2024-01-27T02:15:24;25.50;;;4.20;;
7203;SDS011;3643;52.460;13.322;2024-01-27T02:17:53;18.20;;;3.60;;
7203;SDS011;3643;52.460;13.322;2024-01-27T02:20:21;17.47;;;3.93;;
7203;SDS011;3643;52.460;13.322;2024-01-27T02:22:49;17.40;;;3.30;;
7203;SDS011;3643;52.460;13.322;2024-01-27T02:25:18;15.43;;;3.07;;
7203;SDS011;3643;52.460;13.322;2024-01-27T02:27:46;18.23;;;3.03;;
7203;SDS011;3643;52.460;13.322;2024-01-27T02:30:14;16.10;;;3.70;;
7203;SDS011;3643;52.460;13.322;2024-01-27T02:32:43;14.30;;;3.20;;
7203;SDS011;3643;52.460;13.322;2024-01-27T02:35:11;17.03;;;2.80;;
7203;SDS011;3643;52.460;13.322;2024-01-27T02:37:40;14.77;;;2.90;;
7203;SDS011;3643;52.460;13.322;2024-01-27T02:40:09;14.63;;;3.40;;
7203;SDS011;3643;52.460;13.322;2024-01-27T02:42:38;17.83;;;3.10;;
7203;SDS011;3643;52.460;13.322;2024-01-27T02:45:08;18.40;;;4.07;;
7203;SDS011;3643;52.460;13.322;2024-01-27T02:47:37;16.53;;;3.77;;
7203;SDS011;3643;52.460;13.322;2024-01-27T02:50:06;13.23;;;2.70;;
7203;SDS011;3643;52.460;13.322;2024-01-27T02:52:35;9.70;;;3.10;;
7203;SDS011;3643;52.460;13.322;2024-01-27T02:55:03;14.07;;;3.30;;
7203;SDS011;3643;52.460;13.322;2024-01-27T02:57:31;22.20;;;3.17;;
7203;SDS011;3643;52.460;13.322;2024-01-27T03:00:01;22.63;;;3.67;;
7203;SDS011;3643;52.460;13.322;2024-01-27T03:02:29;16.23;;;3.07;;
7203;SDS011;3643;52.460;13.322;2024-01-27T03:04:57;16.43;;;3.70;;
7203;SDS011;3643;52.460;13.322;2024-01-27T03:07:25;15.97;;;2.90;;
7203;SDS011;3643;52.460;13.322;2024-01-27T03:09:53;16.47;;;3.80;;
7203;SDS011;3643;52.460;13.322;2024-01-27T03:12:21;20.80;;;3.43;;
7203;SDS011;3643;52.460;13.322;2024-01-27T03:14:49;16.67;;;3.57;;
7203;SDS011;3643;52.460;13.322;2024-01-27T03:17:19;20.80;;;3.07;;
7203;SDS011;3643;52.460;13.322;2024-01-27T03:19:47;17.10;;;3.03;;
7203;SDS011;3643;52.460;13.322;2024-01-27T03:22:15;17.73;;;3.73;;
7203;SDS011;3643;52.460;13.322;2024-01-27T03:24:43;12.97;;;2.87;;
7203;SDS011;3643;52.460;13.322;2024-01-27T03:27:11;17.83;;;3.50;;
7203;SDS011;3643;52.460;13.322;2024-01-27T03:29:39;16.13;;;3.23;;
7203;SDS011;3643;52.460;13.322;2024-01-27T03:32:07;19.37;;;3.23;;
7203;SDS011;3643;52.460;13.322;2024-01-27T03:34:37;12.20;;;2.47;;
7203;SDS011;3643;52.460;13.322;2024-01-27T03:37:10;16.13;;;3.03;;
7203;SDS011;3643;52.460;13.322;2024-01-27T03:39:40;18.43;;;3.57;;
7203;SDS011;3643;52.460;13.322;2024-01-27T03:42:08;20.43;;;3.07;;
7203;SDS011;3643;52.460;13.322;2024-01-27T03:44:36;25.10;;;3.57;;
7203;SDS011;3643;52.460;13.322;2024-01-27T03:47:05;15.03;;;3.67;;
7203;SDS011;3643;52.460;13.322;2024-01-27T03:49:33;20.23;;;3.20;;
7203;SDS011;3643;52.460;13.322;2024-01-27T03:52:02;22.60;;;3.17;;
7203;SDS011;3643;52.460;13.322;2024-01-27T03:54:31;13.77;;;3.13;;
7203;SDS011;3643;52.460;13.322;2024-01-27T03:56:59;20.43;;;3.80;;
7203;SDS011;3643;52.460;13.322;2024-01-27T03:59:27;14.80;;;3.50;;
7203;SDS011;3643;52.460;13.322;2024-01-27T04:01:55;11.00;;;2.90;;
7203;SDS011;3643;52.460;13.322;2024-01-27T04:04:23;17.27;;;3.50;;
7203;SDS011;3643;52.460;13.322;2024-01-27T04:06:51;15.17;;;3.33;;
7203;SDS011;3643;52.460;13.322;2024-01-27T04:09:21;14.57;;;3.37;;
7203;SDS011;3643;52.460;13.322;2024-01-27T04:11:50;16.23;;;3.30;;
7203;SDS011;3643;52.460;13.322;2024-01-27T04:14:19;25.27;;;3.63;;
7203;SDS011;3643;52.460;13.322;2024-01-27T04:16:46;20.37;;;3.77;;
7203;SDS011;3643;52.460;13.322;2024-01-27T04:19:14;21.63;;;4.33;;
7203;SDS011;3643;52.460;13.322;2024-01-27T04:21:43;18.60;;;3.67;;
7203;SDS011;3643;52.460;13.322;2024-01-27T04:24:11;18.33;;;3.23;;
7203;SDS011;3643;52.460;13.322;2024-01-27T04:26:40;16.57;;;3.63;;
7203;SDS011;3643;52.460;13.322;2024-01-27T04:29:08;16.47;;;3.60;;
7203;SDS011;3643;52.460;13.322;2024-01-27T04:31:41;7.47;;;2.67;;
7203;SDS011;3643;52.460;13.322;2024-01-27T04:34:09;13.30;;;2.57;;
7203;SDS011;3643;52.460;13.322;2024-01-27T04:36:37;12.90;;;3.17;;
7203;SDS011;3643;52.460;13.322;2024-01-27T04:39:05;21.77;;;3.23;;
7203;SDS011;3643;52.460;13.322;2024-01-27T04:41:33;15.37;;;3.77;;
7203;SDS011;3643;52.460;13.322;2024-01-27T04:44:03;15.03;;;3.63;;
7203;SDS011;3643;52.460;13.322;2024-01-27T04:46:31;21.43;;;3.53;;
7203;SDS011;3643;52.460;13.322;2024-01-27T04:48:59;14.60;;;3.57;;
7203;SDS011;3643;52.460;13.322;2024-01-27T04:51:27;16.40;;;3.50;;
7203;SDS011;3643;52.460;13.322;2024-01-27T04:53:55;20.27;;;3.00;;
7203;SDS011;3643;52.460;13.322;2024-01-27T04:56:23;19.20;;;3.40;;
7203;SDS011;3643;52.460;13.322;2024-01-27T04:58:51;14.67;;;3.20;;
7203;SDS011;3643;52.460;13.322;2024-01-27T05:01:21;15.07;;;3.23;;
7203;SDS011;3643;52.460;13.322;2024-01-27T05:03:49;13.80;;;3.43;;
7203;SDS011;3643;52.460;13.322;2024-01-27T05:06:17;14.77;;;3.47;;
7203;SDS011;3643;52.460;13.322;2024-01-27T05:08:45;15.73;;;3.60;;
7203;SDS011;3643;52.460;13.322;2024-01-27T05:11:14;16.80;;;3.10;;
7203;SDS011;3643;52.460;13.322;2024-01-27T05:13:43;14.07;;;3.77;;
7203;SDS011;3643;52.460;13.322;2024-01-27T05:16:11;13.87;;;3.37;;
7203;SDS011;3643;52.460;13.322;2024-01-27T05:18:41;18.63;;;3.20;;
7203;SDS011;3643;52.460;13.322;2024-01-27T05:21:09;15.40;;;3.27;;
7203;SDS011;3643;52.460;13.322;2024-01-27T05:23:37;16.13;;;3.43;;
7203;SDS011;3643;52.460;13.322;2024-01-27T05:26:05;16.00;;;3.33;;
7203;SDS011;3643;52.460;13.322;2024-01-27T05:28:33;15.83;;;2.87;;
7203;SDS011;3643;52.460;13.322;2024-01-27T05:31:02;16.27;;;3.37;;
7203;SDS011;3643;52.460;13.322;2024-01-27T05:33:30;14.83;;;3.47;;
7203;SDS011;3643;52.460;13.322;2024-01-27T05:35:59;17.83;;;3.50;;
7203;SDS011;3643;52.460;13.322;2024-01-27T05:38:27;13.17;;;3.40;;
7203;SDS011;3643;52.460;13.322;2024-01-27T05:40:58;18.17;;;3.67;;
7203;SDS011;3643;52.460;13.322;2024-01-27T05:43:28;18.57;;;3.60;;
7203;SDS011;3643;52.460;13.322;2024-01-27T05:45:56;11.93;;;2.93;;
7203;SDS011;3643;52.460;13.322;2024-01-27T05:48:24;14.53;;;3.50;;
7203;SDS011;3643;52.460;13.322;2024-01-27T05:50:55;16.97;;;3.17;;
7203;SDS011;3643;52.460;13.322;2024-01-27T05:53:25;15.27;;;3.07;;
7203;SDS011;3643;52.460;13.322;2024-01-27T05:55:55;17.67;;;3.63;;
7203;SDS011;3643;52.460;13.322;2024-01-27T05:58:24;20.93;;;3.57;;
7203;SDS011;3643;52.460;13.322;2024-01-27T06:00:52;16.43;;;3.30;;
7203;SDS011;3643;52.460;13.322;2024-01-27T06:03:20;19.03;;;3.43;;
7203;SDS011;3643;52.460;13.322;2024-01-27T06:05:48;19.83;;;3.73;;
7203;SDS011;3643;52.460;13.322;2024-01-27T06:08:16;13.90;;;3.10;;
7203;SDS011;3643;52.460;13.322;2024-01-27T06:10:47;15.33;;;3.03;;
7203;SDS011;3643;52.460;13.322;2024-01-27T06:13:15;22.90;;;3.20;;
7203;SDS011;3643;52.460;13.322;2024-01-27T06:15:43;15.90;;;3.93;;
7203;SDS011;3643;52.460;13.322;2024-01-27T06:18:11;12.30;;;2.80;;
7203;SDS011;3643;52.460;13.322;2024-01-27T06:20:39;15.40;;;3.67;;
7203;SDS011;3643;52.460;13.322;2024-01-27T06:23:07;19.03;;;3.70;;
7203;SDS011;3643;52.460;13.322;2024-01-27T06:25:35;14.83;;;3.37;;
7203;SDS011;3643;52.460;13.322;2024-01-27T06:28:05;18.57;;;3.53;;
7203;SDS011;3643;52.460;13.322;2024-01-27T06:30:33;18.57;;;3.50;;
7203;SDS011;3643;52.460;13.322;2024-01-27T06:33:01;17.40;;;3.23;;
7203;SDS011;3643;52.460;13.322;2024-01-27T06:35:29;18.53;;;3.30;;
7203;SDS011;3643;52.460;13.322;2024-01-27T06:37:57;13.10;;;3.67;;
7203;SDS011;3643;52.460;13.322;2024-01-27T06:40:25;13.90;;;3.43;;
7203;SDS011;3643;52.460;13.322;2024-01-27T06:42:53;15.20;;;2.97;;
7203;SDS011;3643;52.460;13.322;2024-01-27T06:45:23;15.13;;;3.40;;
7203;SDS011;3643;52.460;13.322;2024-01-27T06:47:51;21.70;;;3.70;;
7203;SDS011;3643;52.460;13.322;2024-01-27T06:50:19;18.30;;;3.63;;
7203;SDS011;3643;52.460;13.322;2024-01-27T06:52:47;11.77;;;2.80;;
7203;SDS011;3643;52.460;13.322;2024-01-27T06:55:15;10.80;;;2.97;;
7203;SDS011;3643;52.460;13.322;2024-01-27T06:57:43;11.67;;;3.67;;
7203;SDS011;3643;52.460;13.322;2024-01-27T07:00:11;13.10;;;3.70;;
7203;SDS011;3643;52.460;13.322;2024-01-27T07:02:42;19.40;;;3.60;;
7203;SDS011;3643;52.460;13.322;2024-01-27T07:05:10;21.43;;;3.27;;
7203;SDS011;3643;52.460;13.322;2024-01-27T07:07:40;24.43;;;3.10;;
7203;SDS011;3643;52.460;13.322;2024-01-27T07:10:09;18.57;;;3.23;;
7203;SDS011;3643;52.460;13.322;2024-01-27T07:12:37;14.93;;;3.50;;
7203;SDS011;3643;52.460;13.322;2024-01-27T07:15:05;11.33;;;3.57;;
7203;SDS011;3643;52.460;13.322;2024-01-27T07:17:33;22.70;;;3.93;;
7203;SDS011;3643;52.460;13.322;2024-01-27T07:20:04;14.40;;;2.73;;
7203;SDS011;3643;52.460;13.322;2024-01-27T07:22:33;14.73;;;3.50;;
7203;SDS011;3643;52.460;13.322;2024-01-27T07:25:00;21.17;;;3.73;;
7203;SDS011;3643;52.460;13.322;2024-01-27T07:27:29;19.70;;;3.73;;
7203;SDS011;3643;52.460;13.322;2024-01-27T07:29:57;19.10;;;3.77;;
7203;SDS011;3643;52.460;13.322;2024-01-27T07:32:25;16.70;;;3.60;;
7203;SDS011;3643;52.460;13.322;2024-01-27T07:34:53;11.97;;;3.13;;
7203;SDS011;3643;52.460;13.322;2024-01-27T07:37:23;11.87;;;3.17;;
7203;SDS011;3643;52.460;13.322;2024-01-27T07:39:51;14.97;;;3.20;;
7203;SDS011;3643;52.460;13.322;2024-01-27T07:42:19;13.07;;;3.00;;
7203;SDS011;3643;52.460;13.322;2024-01-27T07:44:47;12.30;;;3.33;;
7203;SDS011;3643;52.460;13.322;2024-01-27T07:47:15;18.07;;;3.60;;
7203;SDS011;3643;52.460;13.322;2024-01-27T07:49:43;20.57;;;4.13;;
7203;SDS011;3643;52.460;13.322;2024-01-27T07:52:12;12.57;;;2.87;;
7203;SDS011;3643;52.460;13.322;2024-01-27T07:54:41;14.73;;;3.40;;
7203;SDS011;3643;52.460;13.322;2024-01-27T07:57:09;16.30;;;3.30;;
7203;SDS011;3643;52.460;13.322;2024-01-27T07:59:38;16.20;;;4.17;;
7203;SDS011;3643;52.460;13.322;2024-01-27T08:02:06;15.17;;;3.50;;
7203;SDS011;3643;52.460;13.322;2024-01-27T08:04:34;16.30;;;3.50;;
7203;SDS011;3643;52.460;13.322;2024-01-27T08:07:02;15.50;;;3.73;;
7203;SDS011;3643;52.460;13.322;2024-01-27T08:09:36;16.87;;;3.23;;
7203;SDS011;3643;52.460;13.322;2024-01-27T08:12:06;19.87;;;3.87;;
7203;SDS011;3643;52.460;13.322;2024-01-27T08:14:34;13.90;;;3.37;;
7203;SDS011;3643;52.460;13.322;2024-01-27T08:17:03;14.07;;;3.43;;
7203;SDS011;3643;52.460;13.322;2024-01-27T08:19:31;16.67;;;4.67;;
7203;SDS011;3643;52.460;13.322;2024-01-27T08:22:00;17.60;;;3.67;;
7203;SDS011;3643;52.460;13.322;2024-01-27T08:24:28;13.53;;;3.60;;
7203;SDS011;3643;52.460;13.322;2024-01-27T08:26:56;15.97;;;3.53;;
7203;SDS011;3643;52.460;13.322;2024-01-27T08:29:28;13.40;;;3.50;;
7203;SDS011;3643;52.460;13.322;2024-01-27T08:31:56;20.87;;;4.07;;
7203;SDS011;3643;52.460;13.322;2024-01-27T08:34:24;13.77;;;3.40;;
7203;SDS011;3643;52.460;13.322;2024-01-27T08:36:52;17.40;;;4.10;;
7203;SDS011;3643;52.460;13.322;2024-01-27T08:39:24;14.23;;;3.30;;
7203;SDS011;3643;52.460;13.322;2024-01-27T08:41:52;15.10;;;3.40;;
7203;SDS011;3643;52.460;13.322;2024-01-27T08:44:20;15.67;;;3.70;;
7203;SDS011;3643;52.460;13.322;2024-01-27T08:46:51;15.60;;;3.40;;
7203;SDS011;3643;52.460;13.322;2024-01-27T08:49:19;19.30;;;3.77;;
7203;SDS011;3643;52.460;13.322;2024-01-27T08:51:47;20.93;;;3.63;;
7203;SDS011;3643;52.460;13.322;2024-01-27T08:54:15;16.10;;;3.43;;
7203;SDS011;3643;52.460;13.322;2024-01-27T08:56:44;15.30;;;3.20;;
7203;SDS011;3643;52.460;13.322;2024-01-27T08:59:12;17.80;;;3.47;;
7203;SDS011;3643;52.460;13.322;2024-01-27T09:01:41;18.63;;;3.63;;
7203;SDS011;3643;52.460;13.322;2024-01-27T09:04:10;18.97;;;3.30;;
7203;SDS011;3643;52.460;13.322;2024-01-27T09:06:38;12.17;;;3.03;;
7203;SDS011;3643;52.460;13.322;2024-01-27T09:09:06;20.10;;;3.50;;
7203;SDS011;3643;52.460;13.322;2024-01-27T09:11:35;12.73;;;3.57;;
7203;SDS011;3643;52.460;13.322;2024-01-27T09:14:03;21.77;;;3.13;;
7203;SDS011;3643;52.460;13.322;2024-01-27T09:16:33;17.70;;;3.70;;
7203;SDS011;3643;52.460;13.322;2024-01-27T09:19:01;15.17;;;3.73;;
7203;SDS011;3643;52.460;13.322;2024-01-27T09:21:31;16.13;;;3.43;;
7203;SDS011;3643;52.460;13.322;2024-01-27T09:23:59;23.27;;;3.80;;
7203;SDS011;3643;52.460;13.322;2024-01-27T09:26:28;17.23;;;4.50;;
7203;SDS011;3643;52.460;13.322;2024-01-27T09:28:56;22.97;;;4.23;;
7203;SDS011;3643;52.460;13.322;2024-01-27T09:31:24;24.80;;;3.43;;
7203;SDS011;3643;52.460;13.322;2024-01-27T09:33:53;21.10;;;4.27;;
7203;SDS011;3643;52.460;13.322;2024-01-27T09:36:22;15.03;;;3.00;;
7203;SDS011;3643;52.460;13.322;2024-01-27T09:38:52;16.17;;;3.63;;
7203;SDS011;3643;52.460;13.322;2024-01-27T09:41:20;21.87;;;3.20;;
7203;SDS011;3643;52.460;13.322;2024-01-27T09:43:48;17.07;;;3.10;;
7203;SDS011;3643;52.460;13.322;2024-01-27T09:46:17;15.37;;;4.10;;
7203;SDS011;3643;52.460;13.322;2024-01-27T09:52:32;10.63;;;2.77;;
7203;SDS011;3643;52.460;13.322;2024-01-27T09:55:01;20.90;;;3.83;;
7203;SDS011;3643;52.460;13.322;2024-01-27T09:57:30;17.23;;;3.63;;
7203;SDS011;3643;52.460;13.322;2024-01-27T09:59:59;20.00;;;3.47;;
7203;SDS011;3643;52.460;13.322;2024-01-27T10:02:28;11.60;;;3.57;;
7203;SDS011;3643;52.460;13.322;2024-01-27T10:04:57;16.63;;;3.47;;
7203;SDS011;3643;52.460;13.322;2024-01-27T10:07:26;16.03;;;3.83;;
7203;SDS011;3643;52.460;13.322;2024-01-27T10:09:54;17.53;;;3.80;;
7203;SDS011;3643;52.460;13.322;2024-01-27T10:12:23;15.07;;;3.40;;
7203;SDS011;3643;52.460;13.322;2024-01-27T10:14:54;10.63;;;3.10;;
7203;SDS011;3643;52.460;13.322;2024-01-27T10:17:22;22.53;;;6.07;;
7203;SDS011;3643;52.460;13.322;2024-01-27T10:19:59;26.37;;;7.27;;
7203;SDS011;3643;52.460;13.322;2024-01-27T10:22:28;25.00;;;7.00;;
7203;SDS011;3643;52.460;13.322;2024-01-27T10:24:56;28.03;;;11.43;;
7203;SDS011;3643;52.460;13.322;2024-01-27T10:27:25;21.07;;;6.17;;
7203;SDS011;3643;52.460;13.322;2024-01-27T10:29:53;25.20;;;5.90;;
7203;SDS011;3643;52.460;13.322;2024-01-27T10:32:22;20.00;;;4.63;;
7203;SDS011;3643;52.460;13.322;2024-01-27T10:35:00;22.93;;;7.63;;
7203;SDS011;3643;52.460;13.322;2024-01-27T10:37:29;20.13;;;6.33;;
7203;SDS011;3643;52.460;13.322;2024-01-27T10:40:00;17.60;;;4.70;;
7203;SDS011;3643;52.460;13.322;2024-01-27T10:42:31;18.27;;;5.20;;
7203;SDS011;3643;52.460;13.322;2024-01-27T10:44:59;15.83;;;4.00;;
7203;SDS011;3643;52.460;13.322;2024-01-27T10:47:29;18.97;;;4.03;;
7203;SDS011;3643;52.460;13.322;2024-01-27T10:49:58;14.57;;;3.23;;
7203;SDS011;3643;52.460;13.322;2024-01-27T10:52:28;13.47;;;3.80;;
7203;SDS011;3643;52.460;13.322;2024-01-27T10:54:59;13.90;;;3.57;;
7203;SDS011;3643;52.460;13.322;2024-01-27T10:57:30;21.70;;;3.73;;
7203;SDS011;3643;52.460;13.322;2024-01-27T11:00:01;12.33;;;3.80;;
7203;SDS011;3643;52.460;13.322;2024-01-27T11:02:33;17.60;;;4.37;;
7203;SDS011;3643;52.460;13.322;2024-01-27T11:05:06;15.27;;;3.30;;
7203;SDS011;3643;52.460;13.322;2024-01-27T11:07:35;21.13;;;4.50;;
7203;SDS011;3643;52.460;13.322;2024-01-27T11:10:04;18.33;;;3.93;;
7203;SDS011;3643;52.460;13.322;2024-01-27T11:12:35;12.80;;;3.17;;
7203;SDS011;3643;52.460;13.322;2024-01-27T11:15:04;18.40;;;3.63;;
7203;SDS011;3643;52.460;13.322;2024-01-27T11:17:38;15.10;;;3.50;;
7203;SDS011;3643;52.460;13.322;2024-01-27T11:20:07;17.70;;;3.90;;
7203;SDS011;3643;52.460;13.322;2024-01-27T11:22:37;17.73;;;3.50;;
7203;SDS011;3643;52.460;13.322;2024-01-27T11:25:07;17.17;;;3.20;;
7203;SDS011;3643;52.460;13.322;2024-01-27T11:27:37;18.53;;;4.93;;
7203;SDS011;3643;52.460;13.322;2024-01-27T11:30:07;16.63;;;3.43;;
7203;SDS011;3643;52.460;13.322;2024-01-27T11:32:52;10.60;;;3.13;;
7203;SDS011;3643;52.460;13.322;2024-01-27T11:35:20;15.90;;;3.53;;
7203;SDS011;3643;52.460;13.322;2024-01-27T11:37:49;19.10;;;4.27;;
7203;SDS011;3643;52.460;13.322;2024-01-27T11:40:17;21.50;;;4.60;;
7203;SDS011;3643;52.460;13.322;2024-01-27T11:42:54;18.87;;;3.93;;
7203;SDS011;3643;52.460;13.322;2024-01-27T11:45:23;14.97;;;3.30;;
7203;SDS011;3643;52.460;13.322;2024-01-27T11:47:51;17.07;;;3.77;;
7203;SDS011;3643;52.460;13.322;2024-01-27T11:50:19;14.07;;;4.37;;
7203;SDS011;3643;52.460;13.322;2024-01-27T11:52:47;15.67;;;3.73;;
7203;SDS011;3643;52.460;13.322;2024-01-27T11:55:15;14.97;;;3.40;;
7203;SDS011;3643;52.460;13.322;2024-01-27T11:57:45;14.43;;;3.70;;
7203;SDS011;3643;52.460;13.322;2024-01-27T12:00:15;12.37;;;4.03;;
7203;SDS011;3643;52.460;13.322;2024-01-27T12:02:43;14.60;;;3.23;;
7203;SDS011;3643;52.460;13.322;2024-01-27T12:05:11;15.87;;;3.50;;
7203;SDS011;3643;52.460;13.322;2024-01-27T12:07:41;17.23;;;3.53;;
7203;SDS011;3643;52.460;13.322;2024-01-27T12:10:09;17.43;;;3.97;;
7203;SDS011;3643;52.460;13.322;2024-01-27T12:12:38;20.63;;;4.10;;
7203;SDS011;3643;52.460;13.322;2024-01-27T12:15:06;9.37;;;3.20;;
7203;SDS011;3643;52.460;13.322;2024-01-27T12:17:36;13.90;;;3.40;;
7203;SDS011;3643;52.460;13.322;2024-01-27T12:20:05;8.70;;;3.30;;
7203;SDS011;3643;52.460;13.322;2024-01-27T12:22:42;18.70;;;4.00;;
7203;SDS011;3643;52.460;13.322;2024-01-27T12:25:11;11.90;;;3.37;;
7203;SDS011;3643;52.460;13.322;2024-01-27T12:27:41;12.43;;;3.47;;
7203;SDS011;3643;52.460;13.322;2024-01-27T12:30:10;13.13;;;3.83;;
7203;SDS011;3643;52.460;13.322;2024-01-27T12:32:40;13.00;;;3.67;;
7203;SDS011;3643;52.460;13.322;2024-01-27T12:35:08;13.83;;;3.50;;
7203;SDS011;3643;52.460;13.322;2024-01-27T12:37:37;12.60;;;3.63;;
7203;SDS011;3643;52.460;13.322;2024-01-27T12:40:15;14.77;;;4.33;;
7203;SDS011;3643;52.460;13.322;2024-01-27T12:42:49;15.40;;;3.37;;
7203;SDS011;3643;52.460;13.322;2024-01-27T12:45:17;16.97;;;3.63;;
7203;SDS011;3643;52.460;13.322;2024-01-27T12:47:47;16.60;;;4.50;;
7203;SDS011;3643;52.460;13.322;2024-01-27T12:50:15;14.90;;;3.73;;
7203;SDS011;3643;52.460;13.322;2024-01-27T12:52:44;19.63;;;4.53;;
7203;SDS011;3643;52.460;13.322;2024-01-27T12:55:12;21.73;;;3.87;;
7203;SDS011;3643;52.460;13.322;2024-01-27T12:57:41;12.17;;;4.03;;
7203;SDS011;3643;52.460;13.322;2024-01-27T13:00:09;11.10;;;3.97;;
7203;SDS011;3643;52.460;13.322;2024-01-27T13:02:39;17.17;;;4.10;;
7203;SDS011;3643;52.460;13.322;2024-01-27T13:05:08;20.33;;;4.97;;
7203;SDS011;3643;52.460;13.322;2024-01-27T13:07:36;16.30;;;4.40;;
7203;SDS011;3643;52.460;13.322;2024-01-27T13:10:05;15.87;;;4.30;;
7203;SDS011;3643;52.460;13.322;2024-01-27T13:12:35;12.27;;;4.17;;
7203;SDS011;3643;52.460;13.322;2024-01-27T13:15:03;15.50;;;4.27;;
7203;SDS011;3643;52.460;13.322;2024-01-27T13:17:32;14.53;;;4.20;;
7203;SDS011;3643;52.460;13.322;2024-01-27T13:20:00;14.43;;;3.43;;
7203;SDS011;3643;52.460;13.322;2024-01-27T13:22:29;16.20;;;4.23;;
7203;SDS011;3643;52.460;13.322;2024-01-27T13:24:57;15.47;;;4.23;;
7203;SDS011;3643;52.460;13.322;2024-01-27T13:27:31;18.70;;;3.93;;
7203;SDS011;3643;52.460;13.322;2024-01-27T13:30:00;16.37;;;3.50;;
7203;SDS011;3643;52.460;13.322;2024-01-27T13:32:28;13.47;;;3.77;;
7203;SDS011;3643;52.460;13.322;2024-01-27T13:34:56;10.57;;;3.37;;
7203;SDS011;3643;52.460;13.322;2024-01-27T13:37:24;10.20;;;3.03;;
7203;SDS011;3643;52.460;13.322;2024-01-27T13:39:55;12.53;;;3.27;;
7203;SDS011;3643;52.460;13.322;2024-01-27T13:42:23;12.17;;;3.63;;
7203;SDS011;3643;52.460;13.322;2024-01-27T13:44:51;10.33;;;3.30;;
7203;SDS011;3643;52.460;13.322;2024-01-27T13:47:20;15.20;;;3.50;;
7203;SDS011;3643;52.460;13.322;2024-01-27T13:49:48;10.07;;;3.17;;
7203;SDS011;3643;52.460;13.322;2024-01-27T13:52:16;13.67;;;3.10;;
7203;SDS011;3643;52.460;13.322;2024-01-27T13:54:44;17.07;;;3.50;;
7203;SDS011;3643;52.460;13.322;2024-01-27T13:57:14;11.50;;;3.03;;
7203;SDS011;3643;52.460;13.322;2024-01-27T13:59:42;16.00;;;3.27;;
7203;SDS011;3643;52.460;13.322;2024-01-27T14:02:10;14.57;;;4.70;;
7203;SDS011;3643;52.460;13.322;2024-01-27T14:04:39;17.70;;;3.30;;
7203;SDS011;3643;52.460;13.322;2024-01-27T14:07:07;12.33;;;3.13;;
7203;SDS011;3643;52.460;13.322;2024-01-27T14:09:36;8.63;;;3.27;;
7203;SDS011;3643;52.460;13.322;2024-01-27T14:12:05;10.23;;;3.17;;
7203;SDS011;3643;52.460;13.322;2024-01-27T14:14:35;16.80;;;3.53;;
7203;SDS011;3643;52.460;13.322;2024-01-27T14:17:06;12.80;;;3.57;;
7203;SDS011;3643;52.460;13.322;2024-01-27T14:19:34;15.00;;;3.40;;
7203;SDS011;3643;52.460;13.322;2024-01-27T14:22:03;12.30;;;2.80;;
7203;SDS011;3643;52.460;13.322;2024-01-27T14:24:32;19.23;;;3.63;;
7203;SDS011;3643;52.460;13.322;2024-01-27T14:27:00;13.37;;;3.50;;
7203;SDS011;3643;52.460;13.322;2024-01-27T14:29:31;9.97;;;3.00;;
7203;SDS011;3643;52.460;13.322;2024-01-27T14:32:02;13.33;;;3.30;;
7203;SDS011;3643;52.460;13.322;2024-01-27T14:34:31;12.23;;;3.90;;
7203;SDS011;3643;52.460;13.322;2024-01-27T14:36:59;19.80;;;3.53;;
7203;SDS011;3643;52.460;13.322;2024-01-27T14:39:28;15.13;;;3.40;;
7203;SDS011;3643;52.460;13.322;2024-01-27T14:41:57;10.83;;;2.80;;
7203;SDS011;3643;52.460;13.322;2024-01-27T14:44:25;10.20;;;2.73;;
7203;SDS011;3643;52.460;13.322;2024-01-27T14:46:53;12.97;;;3.13;;
7203;SDS011;3643;52.460;13.322;2024-01-27T14:49:23;11.77;;;3.40;;
7203;SDS011;3643;52.460;13.322;2024-01-27T14:51:51;13.37;;;5.67;;
7203;SDS011;3643;52.460;13.322;2024-01-27T14:54:19;23.07;;;7.90;;
7203;SDS011;3643;52.460;13.322;2024-01-27T14:56:47;20.37;;;5.90;;
7203;SDS011;3643;52.460;13.322;2024-01-27T14:59:15;22.40;;;8.90;;
7203;SDS011;3643;52.460;13.322;2024-01-27T15:01:43;22.83;;;9.10;;